Terminal Aerodrome Forecast
Issued by NWS

Home | Current Version | Previous Version | Text Only | Print | Product List | Glossary On
Versions: 1 2 3 4 5 6 7 8 9 10 11 12 13 14
000
FTUS45 KABQ 110500
TAFAEG
TAF
KAEG 110533Z 1106/1206 30010KT P6SM SCT080
     FM112000 21010G20KT P6SM VCTS BKN060CB
     FM112300 21010G20KT P6SM VCSH BKN060
     FM120400 18010KT P6SM OVC060=

USA.gov is the U.S. government's official web portal to all federal, state and local government web resources and services.